createdAt,value
2017-07-11T00:00:26.113Z,2.77
2017-07-11T00:02:53.563Z,2.90
2017-07-11T00:05:20.907Z,4.40
2017-07-11T00:07:48.299Z,4.40
2017-07-11T00:10:15.700Z,4.27
2017-07-11T00:12:43.100Z,3.83
2017-07-11T00:15:10.500Z,5.07
2017-07-11T00:17:37.891Z,5.37
2017-07-11T00:20:05.303Z,6.00
2017-07-11T00:22:32.682Z,5.77
2017-07-11T00:25:00.095Z,5.47
2017-07-11T00:27:27.484Z,5.70
2017-07-11T00:29:55.210Z,6.13
2017-07-11T00:32:22.732Z,5.77
2017-07-11T00:34:50.123Z,5.70
2017-07-11T00:37:17.526Z,5.70
2017-07-11T00:39:44.928Z,5.80
2017-07-11T00:42:12.320Z,5.80
2017-07-11T00:44:39.715Z,5.47
2017-07-11T00:47:07.113Z,5.00
2017-07-11T00:49:34.504Z,4.97
2017-07-11T00:52:01.904Z,4.90
2017-07-11T00:54:29.292Z,5.60
2017-07-11T00:56:56.696Z,5.13
2017-07-11T00:59:24.094Z,5.03
2017-07-11T01:01:51.495Z,5.70
2017-07-11T01:04:18.896Z,6.20
2017-07-11T01:06:46.296Z,4.97
2017-07-11T01:09:13.686Z,5.67
2017-07-11T01:11:41.088Z,7.43
2017-07-11T01:14:08.490Z,6.63
2017-07-11T01:16:35.888Z,4.60
2017-07-11T01:19:03.291Z,7.47
2017-07-11T01:21:30.688Z,5.97
2017-07-11T01:23:58.087Z,6.40
2017-07-11T01:26:25.502Z,6.83
2017-07-11T01:28:52.897Z,5.37
2017-07-11T01:31:20.293Z,5.67
2017-07-11T01:33:47.697Z,6.17
2017-07-11T01:36:15.103Z,5.87
2017-07-11T01:38:42.510Z,5.57
2017-07-11T01:41:09.899Z,5.47
2017-07-11T01:43:37.295Z,5.60
2017-07-11T01:46:04.702Z,4.63
2017-07-11T01:48:32.112Z,4.73
2017-07-11T01:50:59.502Z,5.60
2017-07-11T01:53:26.900Z,5.23
2017-07-11T01:55:54.295Z,5.63
2017-07-11T01:58:21.690Z,4.73
2017-07-11T02:00:49.079Z,5.90
2017-07-11T02:03:16.475Z,5.20
2017-07-11T02:05:43.869Z,4.97
2017-07-11T02:08:11.272Z,5.47
2017-07-11T02:10:38.669Z,5.43
2017-07-11T02:13:06.071Z,6.37
2017-07-11T02:15:33.462Z,6.17
2017-07-11T02:18:00.872Z,5.47
2017-07-11T02:20:28.244Z,4.90
2017-07-11T02:22:55.644Z,5.93
2017-07-11T02:25:23.030Z,5.80
2017-07-11T02:27:50.505Z,5.27
2017-07-11T02:30:17.885Z,6.07
2017-07-11T02:32:45.288Z,6.17
2017-07-11T02:35:12.687Z,7.27
2017-07-11T02:37:40.079Z,6.53
2017-07-11T02:40:07.479Z,7.30
2017-07-11T02:42:34.879Z,6.73
2017-07-11T02:45:02.275Z,7.17
2017-07-11T02:47:29.683Z,6.90
2017-07-11T02:49:57.085Z,7.03
2017-07-11T02:52:24.475Z,6.90
2017-07-11T02:54:51.863Z,5.60
2017-07-11T02:57:19.256Z,5.90
2017-07-11T02:59:46.650Z,6.10
2017-07-11T03:02:14.039Z,5.47
2017-07-11T03:04:41.436Z,6.67
2017-07-11T03:07:08.827Z,6.70
2017-07-11T03:09:36.526Z,6.80
2017-07-11T03:12:03.909Z,6.80
2017-07-11T03:14:31.306Z,6.40
2017-07-11T03:16:58.711Z,7.20
2017-07-11T03:19:26.113Z,7.23
2017-07-11T03:21:53.512Z,7.30
2017-07-11T03:24:20.917Z,5.97
2017-07-11T03:26:48.300Z,7.43
2017-07-11T03:29:15.698Z,6.57
2017-07-11T03:31:43.095Z,7.73
2017-07-11T03:34:10.509Z,9.10
2017-07-11T03:36:37.895Z,8.90
2017-07-11T03:39:05.302Z,8.10
2017-07-11T03:41:32.700Z,9.10
2017-07-11T03:44:00.099Z,7.00
2017-07-11T03:46:27.491Z,9.70
2017-07-11T03:48:54.883Z,8.60
2017-07-11T03:51:22.275Z,6.80
2017-07-11T03:53:49.673Z,8.40
2017-07-11T03:56:17.064Z,7.90
2017-07-11T03:58:44.724Z,8.30
2017-07-11T04:01:12.168Z,9.13
2017-07-11T04:03:39.569Z,8.97
2017-07-11T04:06:06.980Z,9.70
2017-07-11T04:08:34.407Z,9.90
2017-07-11T04:11:01.798Z,9.57
2017-07-11T04:13:29.195Z,10.97
2017-07-11T04:15:56.620Z,9.40
2017-07-11T04:18:24.016Z,10.40
2017-07-11T04:20:51.424Z,10.80
2017-07-11T04:23:18.823Z,11.93
2017-07-11T04:25:46.232Z,11.80
2017-07-11T04:28:13.634Z,11.90
2017-07-11T04:30:41.067Z,14.30
2017-07-11T04:33:08.458Z,16.20
2017-07-11T04:35:35.863Z,14.20
2017-07-11T04:38:03.498Z,16.00
2017-07-11T04:40:30.928Z,16.57
2017-07-11T04:42:58.323Z,17.83
2017-07-11T04:45:25.990Z,16.93
2017-07-11T04:47:53.397Z,19.07
2017-07-11T04:50:20.872Z,20.57
2017-07-11T04:52:48.347Z,21.13
2017-07-11T04:55:15.952Z,21.80
2017-07-11T04:57:43.394Z,17.73
2017-07-11T05:00:10.819Z,19.60
2017-07-11T05:02:38.216Z,21.97
2017-07-11T05:05:05.683Z,24.47
2017-07-11T05:07:33.091Z,22.90
2017-07-11T05:10:00.506Z,20.50
2017-07-11T05:12:27.926Z,20.63
2017-07-11T05:14:55.329Z,24.53
2017-07-11T05:17:22.727Z,23.03
2017-07-11T05:19:50.148Z,22.80
2017-07-11T05:22:17.558Z,25.83
2017-07-11T05:24:44.957Z,23.80
2017-07-11T05:27:12.368Z,22.90
2017-07-11T05:29:39.998Z,26.77
2017-07-11T05:32:07.659Z,21.67
2017-07-11T05:34:35.082Z,27.80
2017-07-11T05:37:02.498Z,29.27
2017-07-11T05:39:29.894Z,23.67
2017-07-11T05:41:57.320Z,31.43
2017-07-11T05:44:24.943Z,31.27
2017-07-11T05:46:52.360Z,31.33
2017-07-11T05:49:19.767Z,25.73
2017-07-11T05:51:47.164Z,31.10
2017-07-11T05:54:14.555Z,29.67
2017-07-11T05:56:41.963Z,28.87
2017-07-11T05:59:09.380Z,26.87
2017-07-11T06:01:36.806Z,29.57
2017-07-11T06:04:04.201Z,29.87
2017-07-11T06:06:31.607Z,29.97
2017-07-11T06:08:59.007Z,30.50
2017-07-11T06:11:26.411Z,31.17
2017-07-11T06:13:53.822Z,29.70
2017-07-11T06:16:21.224Z,30.20
2017-07-11T06:18:48.628Z,29.90
2017-07-11T06:21:16.039Z,29.90
2017-07-11T06:23:43.450Z,29.37
2017-07-11T06:26:10.855Z,32.93
2017-07-11T06:28:38.248Z,32.77
2017-07-11T06:31:05.659Z,32.00
2017-07-11T06:33:33.049Z,34.23
2017-07-11T06:36:00.475Z,31.37
2017-07-11T06:38:27.875Z,34.27
2017-07-11T06:40:55.528Z,32.23
2017-07-11T06:43:22.927Z,31.47
2017-07-11T06:45:50.327Z,29.60
2017-07-11T06:48:17.741Z,32.37
2017-07-11T06:50:45.139Z,34.10
2017-07-11T06:53:12.548Z,31.20
2017-07-11T06:55:39.947Z,28.63
2017-07-11T06:58:07.350Z,28.97
2017-07-11T07:00:34.752Z,31.83
2017-07-11T07:03:02.160Z,26.70
2017-07-11T07:05:29.567Z,27.93
2017-07-11T07:07:56.970Z,25.70
2017-07-11T07:10:24.378Z,26.00
2017-07-11T07:12:51.802Z,25.10
2017-07-11T07:15:19.206Z,23.07
2017-07-11T07:17:46.615Z,22.73
2017-07-11T07:20:14.014Z,24.70
2017-07-11T07:22:41.422Z,22.97
2017-07-11T07:25:08.854Z,24.30
2017-07-11T07:27:36.239Z,22.40
2017-07-11T07:30:03.639Z,24.40
2017-07-11T07:32:31.047Z,23.40
2017-07-11T07:34:58.750Z,23.07
2017-07-11T07:37:26.159Z,23.90
2017-07-11T07:39:53.571Z,26.50
2017-07-11T07:42:20.976Z,22.87
2017-07-11T07:44:48.391Z,23.37
2017-07-11T07:47:15.801Z,27.00
2017-07-11T07:49:43.203Z,26.83
2017-07-11T07:52:10.611Z,26.50
2017-07-11T07:54:38.016Z,26.33
2017-07-11T07:57:05.423Z,27.43
2017-07-11T07:59:32.833Z,25.43
2017-07-11T08:02:00.226Z,27.53
2017-07-11T08:04:27.635Z,30.30
2017-07-11T08:06:55.039Z,24.47
2017-07-11T08:09:22.448Z,20.57
2017-07-11T08:11:49.852Z,19.50
2017-07-11T08:14:17.264Z,20.93
2017-07-11T08:16:46.584Z,20.27
2017-07-11T08:19:14.000Z,21.83
2017-07-11T08:21:41.433Z,21.40
2017-07-11T08:24:08.842Z,23.10
2017-07-11T08:26:36.256Z,23.53
2017-07-11T08:29:03.681Z,23.67
2017-07-11T08:31:31.083Z,26.80
2017-07-11T08:33:58.485Z,25.53
2017-07-11T08:36:25.886Z,22.87
2017-07-11T08:38:53.297Z,29.37
2017-07-11T08:41:20.705Z,28.80
2017-07-11T08:43:48.100Z,31.20
2017-07-11T08:46:15.506Z,31.33
2017-07-11T08:48:42.911Z,29.70
2017-07-11T08:51:10.315Z,28.93
2017-07-11T08:53:37.718Z,28.33
2017-07-11T08:56:05.125Z,26.00
2017-07-11T08:58:32.523Z,30.70
2017-07-11T09:00:59.928Z,29.90
2017-07-11T09:03:27.332Z,30.53
2017-07-11T09:05:54.744Z,33.23
2017-07-11T09:08:22.152Z,32.23
2017-07-11T09:10:49.808Z,30.43
2017-07-11T09:13:17.214Z,30.53
2017-07-11T09:15:44.624Z,27.67
2017-07-11T09:18:12.022Z,29.90
2017-07-11T09:20:39.427Z,28.67
2017-07-11T09:23:06.864Z,30.00
2017-07-11T09:25:34.274Z,28.83
2017-07-11T09:28:01.700Z,29.60
2017-07-11T09:30:29.107Z,30.33
2017-07-11T09:32:56.503Z,28.47
2017-07-11T09:35:23.918Z,27.90
2017-07-11T09:37:51.316Z,22.67
2017-07-11T09:40:18.724Z,22.73
2017-07-11T09:42:46.130Z,24.93
2017-07-11T09:45:13.535Z,18.63
2017-07-11T09:47:40.936Z,16.27
2017-07-11T09:50:08.343Z,16.20
2017-07-11T09:52:35.749Z,12.47
2017-07-11T09:55:03.152Z,11.53
2017-07-11T09:57:30.548Z,12.60
2017-07-11T09:59:58.283Z,13.60
2017-07-11T10:02:25.684Z,11.53
2017-07-11T10:04:53.092Z,13.70
2017-07-11T10:07:20.495Z,10.53
2017-07-11T10:09:47.905Z,14.00
2017-07-11T10:12:15.298Z,12.20
2017-07-11T10:14:42.703Z,9.77
2017-07-11T10:17:10.104Z,9.37
2017-07-11T10:19:37.512Z,8.63
2017-07-11T10:22:04.911Z,8.80
2017-07-11T10:24:32.307Z,10.20
2017-07-11T10:26:59.831Z,11.63
2017-07-11T10:29:27.236Z,10.17
2017-07-11T10:31:54.659Z,10.60
2017-07-11T10:34:22.068Z,10.43
2017-07-11T10:36:49.467Z,10.40
2017-07-11T10:39:16.876Z,9.50
2017-07-11T10:41:44.309Z,11.10
2017-07-11T10:44:14.294Z,9.33
2017-07-11T10:46:41.699Z,10.97
2017-07-11T10:49:09.116Z,11.27
2017-07-11T10:51:36.508Z,9.90
2017-07-11T10:54:03.922Z,12.23
2017-07-11T10:56:31.317Z,11.83
2017-07-11T10:58:58.732Z,14.17
2017-07-11T11:01:26.135Z,14.40
2017-07-11T11:03:53.543Z,15.37
2017-07-11T11:06:20.940Z,16.07
2017-07-11T11:08:48.439Z,18.27
2017-07-11T11:11:15.845Z,16.53
2017-07-11T11:13:43.248Z,15.93
2017-07-11T11:16:10.677Z,15.70
2017-07-11T11:18:38.081Z,16.13
2017-07-11T11:21:05.491Z,15.00
2017-07-11T11:23:32.908Z,16.33
2017-07-11T11:26:00.319Z,14.50
2017-07-11T11:28:27.711Z,16.43
2017-07-11T11:30:55.120Z,14.00
2017-07-11T11:33:22.736Z,13.90
2017-07-11T11:35:50.143Z,11.57
2017-07-11T11:38:17.536Z,11.30
2017-07-11T11:40:44.960Z,11.77
2017-07-11T11:43:12.358Z,11.43
2017-07-11T11:45:39.774Z,10.03
2017-07-11T11:48:07.214Z,12.77
2017-07-11T11:50:34.628Z,11.30
2017-07-11T11:53:02.029Z,11.33
2017-07-11T11:55:29.431Z,12.53
2017-07-11T11:57:56.848Z,13.27
2017-07-11T12:00:24.467Z,12.80
2017-07-11T12:02:51.864Z,12.60
2017-07-11T12:05:19.279Z,11.83
2017-07-11T12:07:46.680Z,12.20
2017-07-11T12:10:14.300Z,14.63
2017-07-11T12:12:41.719Z,14.90
2017-07-11T12:15:10.303Z,13.20
2017-07-11T12:17:42.633Z,12.53
2017-07-11T12:20:11.327Z,13.63
2017-07-11T12:22:38.719Z,13.83
2017-07-11T12:25:06.135Z,16.00
2017-07-11T12:27:33.531Z,13.20
2017-07-11T12:30:00.947Z,13.73
2017-07-11T12:32:28.349Z,13.93
2017-07-11T12:34:55.763Z,14.90
2017-07-11T12:37:23.241Z,15.37
2017-07-11T12:39:50.655Z,14.40
2017-07-11T12:42:18.111Z,13.57
2017-07-11T12:44:45.507Z,14.10
2017-07-11T12:47:12.923Z,15.43
2017-07-11T12:49:40.320Z,15.43
2017-07-11T12:52:07.728Z,12.10
2017-07-11T12:54:35.127Z,13.70
2017-07-11T12:57:02.540Z,13.80
2017-07-11T12:59:29.940Z,12.53
2017-07-11T13:01:57.347Z,14.83
2017-07-11T13:04:24.748Z,14.00
2017-07-11T13:06:52.159Z,14.83
2017-07-11T13:09:19.569Z,13.60
2017-07-11T13:11:46.959Z,13.83
2017-07-11T13:14:14.361Z,14.97
2017-07-11T13:16:41.789Z,17.07
2017-07-11T13:19:09.990Z,17.00
2017-07-11T13:21:37.405Z,16.53
2017-07-11T13:24:04.802Z,16.43
2017-07-11T13:26:32.243Z,14.63
2017-07-11T13:28:59.639Z,13.77
2017-07-11T13:31:27.071Z,11.90
2017-07-11T13:33:54.484Z,12.83
2017-07-11T13:36:21.908Z,11.40
2017-07-11T13:38:49.312Z,11.67
2017-07-11T13:41:16.716Z,13.00
2017-07-11T13:43:44.124Z,13.27
2017-07-11T13:46:11.539Z,11.63
2017-07-11T13:48:38.948Z,11.20
2017-07-11T13:51:06.349Z,9.63
2017-07-11T13:53:33.752Z,11.73
2017-07-11T13:56:01.180Z,9.93
2017-07-11T13:58:28.573Z,11.90
2017-07-11T14:00:55.968Z,11.00
2017-07-11T14:03:23.422Z,10.70
2017-07-11T14:05:50.847Z,13.27
2017-07-11T14:08:18.266Z,10.80
2017-07-11T14:10:45.667Z,11.70
2017-07-11T14:13:13.082Z,11.50
2017-07-11T14:15:40.481Z,11.57
2017-07-11T14:18:07.883Z,11.80
2017-07-11T14:20:35.284Z,10.50
2017-07-11T14:23:02.703Z,10.97
2017-07-11T14:25:30.103Z,11.20
2017-07-11T14:27:57.511Z,10.83
2017-07-11T14:30:24.908Z,9.97
2017-07-11T14:32:52.316Z,10.07
2017-07-11T14:35:19.717Z,11.53
2017-07-11T14:37:47.132Z,10.67
2017-07-11T14:40:14.528Z,11.10
2017-07-11T14:42:41.944Z,12.40
2017-07-11T14:45:09.344Z,10.70
2017-07-11T14:47:36.748Z,8.60
2017-07-11T14:50:04.153Z,12.40
2017-07-11T14:52:31.560Z,9.77
2017-07-11T14:54:58.960Z,10.73
2017-07-11T14:57:26.364Z,12.37
2017-07-11T14:59:53.764Z,9.30
2017-07-11T15:02:21.171Z,9.40
2017-07-11T15:04:48.571Z,10.10
2017-07-11T15:07:15.984Z,9.43
2017-07-11T15:09:43.376Z,11.00
2017-07-11T15:12:10.776Z,8.77
2017-07-11T15:14:38.178Z,4.93
2017-07-11T15:17:05.812Z,4.63
2017-07-11T15:19:33.207Z,5.43
2017-07-11T15:22:00.603Z,5.10
2017-07-11T15:24:28.000Z,5.73
2017-07-11T15:26:55.403Z,4.90
2017-07-11T15:29:22.796Z,6.40
2017-07-11T15:31:50.189Z,6.60
2017-07-11T15:34:17.605Z,7.53
2017-07-11T15:36:44.987Z,7.13
2017-07-11T15:39:12.395Z,7.50
2017-07-11T15:41:39.787Z,8.00
2017-07-11T15:44:07.204Z,8.80
2017-07-11T15:46:34.600Z,9.17
2017-07-11T15:49:02.008Z,10.10
2017-07-11T15:51:29.404Z,8.50
2017-07-11T15:53:56.804Z,8.23
2017-07-11T15:56:24.207Z,8.27
2017-07-11T15:58:51.608Z,8.40
2017-07-11T16:01:19.025Z,7.37
2017-07-11T16:03:46.481Z,12.83
2017-07-11T16:06:13.871Z,12.23
2017-07-11T16:08:41.579Z,12.23
2017-07-11T16:11:08.975Z,11.70
2017-07-11T16:13:36.384Z,12.47
2017-07-11T16:16:03.783Z,12.40
2017-07-11T16:18:31.527Z,12.90
2017-07-11T16:20:58.910Z,12.90
2017-07-11T16:23:26.345Z,12.43
2017-07-11T16:25:53.751Z,11.70
2017-07-11T16:28:21.152Z,11.80
2017-07-11T16:30:48.796Z,12.70
2017-07-11T16:33:16.192Z,10.40
2017-07-11T16:35:43.606Z,12.07
2017-07-11T16:38:11.215Z,11.73
2017-07-11T16:40:38.631Z,11.83
2017-07-11T16:43:06.028Z,12.03
2017-07-11T16:45:33.450Z,10.90
2017-07-11T16:48:00.848Z,8.80
2017-07-11T16:50:28.255Z,8.73
2017-07-11T16:52:55.880Z,10.30
2017-07-11T16:55:23.296Z,9.30
2017-07-11T16:57:50.695Z,11.20
2017-07-11T17:00:18.120Z,9.87
2017-07-11T17:02:45.525Z,10.17
2017-07-11T17:05:12.917Z,9.03
2017-07-11T17:07:40.329Z,10.70
2017-07-11T17:10:07.723Z,10.03
2017-07-11T17:12:35.152Z,11.07
2017-07-11T17:15:02.556Z,9.67
2017-07-11T17:17:29.956Z,10.93
2017-07-11T17:19:57.365Z,11.53
2017-07-11T17:22:24.767Z,11.43
2017-07-11T17:24:52.196Z,11.10
2017-07-11T17:27:19.812Z,12.20
2017-07-11T17:29:47.211Z,11.07
2017-07-11T17:32:14.616Z,9.60
2017-07-11T17:34:42.031Z,10.60
2017-07-11T17:37:09.458Z,12.17
2017-07-11T17:39:37.067Z,7.53
2017-07-11T17:42:04.474Z,11.00
2017-07-11T17:44:31.882Z,10.47
2017-07-11T17:46:59.279Z,10.87
2017-07-11T17:49:26.997Z,12.00
2017-07-11T17:51:54.422Z,10.53
2017-07-11T17:54:21.843Z,9.40
2017-07-11T17:56:49.260Z,10.27
2017-07-11T17:59:16.652Z,8.87
2017-07-11T18:01:44.071Z,8.87
2017-07-11T18:04:11.471Z,9.90
2017-07-11T18:06:38.876Z,8.60
2017-07-11T18:09:06.286Z,8.33
2017-07-11T18:11:33.696Z,9.10
2017-07-11T18:14:01.094Z,7.70
2017-07-11T18:16:28.488Z,8.60
2017-07-11T18:18:55.912Z,8.40
2017-07-11T18:21:23.311Z,9.20
2017-07-11T18:23:50.720Z,8.90
2017-07-11T18:26:18.124Z,9.07
2017-07-11T18:28:45.524Z,8.20
2017-07-11T18:31:12.931Z,10.53
2017-07-11T18:33:40.334Z,8.60
2017-07-11T18:36:07.741Z,9.00
2017-07-11T18:38:35.146Z,10.70
2017-07-11T18:41:02.570Z,9.40
2017-07-11T18:43:29.976Z,11.77
2017-07-11T18:45:57.376Z,9.60
2017-07-11T18:48:24.775Z,11.47
2017-07-11T18:50:52.188Z,10.50
2017-07-11T18:53:19.593Z,10.23
2017-07-11T18:55:46.999Z,8.77
2017-07-11T18:58:14.424Z,10.23
2017-07-11T19:00:41.840Z,10.37
2017-07-11T19:03:09.258Z,11.23
2017-07-11T19:05:36.662Z,11.33
2017-07-11T19:08:04.055Z,10.43
2017-07-11T19:10:31.729Z,10.23
2017-07-11T19:12:59.130Z,12.13
2017-07-11T19:15:26.551Z,11.03
2017-07-11T19:17:53.948Z,12.10
2017-07-11T19:20:21.363Z,10.00
2017-07-11T19:22:48.755Z,10.27
2017-07-11T19:25:16.756Z,13.43
2017-07-11T19:27:44.396Z,9.37
2017-07-11T19:30:11.800Z,10.10
2017-07-11T19:32:39.453Z,9.80
2017-07-11T19:35:06.856Z,9.07
2017-07-11T19:37:34.263Z,10.53
2017-07-11T19:40:01.659Z,10.70
2017-07-11T19:42:29.075Z,10.10
2017-07-11T19:44:56.477Z,9.57
2017-07-11T19:47:23.920Z,9.83
2017-07-11T19:49:51.350Z,9.33
2017-07-11T19:52:19.173Z,11.40
2017-07-11T19:54:46.656Z,10.23
2017-07-11T19:57:14.064Z,9.07
2017-07-11T19:59:41.468Z,10.33
2017-07-11T20:02:08.881Z,10.57
2017-07-11T20:04:36.596Z,10.73
2017-07-11T20:07:04.004Z,10.77
2017-07-11T20:09:31.539Z,10.63
2017-07-11T20:11:59.007Z,10.13
2017-07-11T20:14:26.448Z,11.70
2017-07-11T20:16:53.859Z,10.30
2017-07-11T20:19:21.264Z,10.20
2017-07-11T20:21:48.668Z,9.50
2017-07-11T20:24:16.380Z,10.67
2017-07-11T20:26:43.803Z,11.20
2017-07-11T20:29:11.239Z,10.23
2017-07-11T20:31:38.872Z,10.50
2017-07-11T20:34:06.280Z,10.30
2017-07-11T20:36:33.882Z,11.70
2017-07-11T20:39:01.804Z,12.10
2017-07-11T20:41:29.450Z,12.00
2017-07-11T20:43:57.004Z,9.77
2017-07-11T20:46:25.938Z,11.53
2017-07-11T20:51:44.175Z,11.20
2017-07-11T20:54:11.577Z,10.70
2017-07-11T20:56:38.979Z,13.20
2017-07-11T20:59:06.379Z,12.30
2017-07-11T21:01:33.783Z,12.03
2017-07-11T21:04:01.185Z,13.10
2017-07-11T21:06:28.579Z,12.30
2017-07-11T21:08:55.999Z,11.63
2017-07-11T21:11:23.399Z,9.63
2017-07-11T21:13:50.816Z,11.43
2017-07-11T21:16:18.216Z,10.63
2017-07-11T21:18:45.629Z,12.97
2017-07-11T21:21:13.031Z,10.67
2017-07-11T21:23:40.440Z,11.47
2017-07-11T21:26:07.840Z,12.27
2017-07-11T21:28:35.254Z,13.20
2017-07-11T21:31:02.864Z,11.80
2017-07-11T21:33:30.268Z,11.80
2017-07-11T21:35:57.677Z,12.53
2017-07-11T21:38:25.088Z,14.67
2017-07-11T21:40:52.518Z,12.70
2017-07-11T21:43:19.910Z,11.97
2017-07-11T21:45:47.318Z,12.03
2017-07-11T21:48:14.719Z,13.93
2017-07-11T21:50:42.123Z,11.23
2017-07-11T21:53:09.528Z,13.00
2017-07-11T21:55:36.932Z,13.47
2017-07-11T21:58:04.343Z,12.10
2017-07-11T22:00:31.745Z,12.67
2017-07-11T22:02:59.151Z,12.20
2017-07-11T22:05:26.572Z,11.90
2017-07-11T22:07:54.001Z,12.47
2017-07-11T22:10:21.419Z,12.20
2017-07-11T22:12:48.815Z,11.90
2017-07-11T22:15:16.213Z,12.00
2017-07-11T22:17:43.620Z,11.97
2017-07-11T22:20:11.023Z,11.83
2017-07-11T22:22:38.426Z,11.20
2017-07-11T22:25:05.828Z,11.33
2017-07-11T22:27:33.223Z,12.57
2017-07-11T22:30:00.633Z,11.30
2017-07-11T22:32:28.035Z,11.37
2017-07-11T22:34:55.440Z,12.63
2017-07-11T22:37:22.844Z,12.00
2017-07-11T22:39:50.251Z,14.00
2017-07-11T22:42:17.651Z,15.53
2017-07-11T22:44:45.063Z,15.07
2017-07-11T22:47:12.503Z,14.13
2017-07-11T22:49:39.912Z,14.80
2017-07-11T22:52:07.323Z,15.00
2017-07-11T22:54:34.955Z,15.60
2017-07-11T22:57:02.355Z,15.50
2017-07-11T22:59:29.776Z,15.00
2017-07-11T23:01:57.178Z,13.73
2017-07-11T23:04:24.583Z,16.17
2017-07-11T23:06:51.984Z,13.83
2017-07-11T23:09:19.393Z,11.97
2017-07-11T23:11:46.788Z,12.40
2017-07-11T23:14:14.195Z,14.00
2017-07-11T23:16:41.591Z,13.57
2017-07-11T23:19:09.000Z,15.20
2017-07-11T23:21:36.403Z,12.90
2017-07-11T23:24:03.812Z,14.07
2017-07-11T23:26:31.208Z,14.07
2017-07-11T23:28:58.623Z,15.60
2017-07-11T23:31:26.023Z,13.10
2017-07-11T23:33:53.422Z,16.40
2017-07-11T23:36:20.824Z,14.40
2017-07-11T23:38:48.299Z,14.90
2017-07-11T23:41:15.699Z,13.97
2017-07-11T23:43:43.099Z,15.20
2017-07-11T23:46:10.508Z,13.50
2017-07-11T23:48:37.907Z,14.60
2017-07-11T23:51:05.316Z,14.27
2017-07-11T23:53:32.716Z,13.07
2017-07-11T23:56:00.115Z,13.53
2017-07-11T23:58:27.516Z,14.90
